createdAt,value
2018-12-19T00:01:28.105Z,24.93
2018-12-19T00:03:59.088Z,24.67
2018-12-19T00:06:30.089Z,24.27
2018-12-19T00:09:03.173Z,22.60
2018-12-19T00:11:29.946Z,22.37
2018-12-19T00:13:59.036Z,22.37
2018-12-19T00:16:27.580Z,22.40
2018-12-19T00:18:56.519Z,22.70
2018-12-19T00:21:25.518Z,21.83
2018-12-19T00:23:54.056Z,21.80
2018-12-19T00:26:23.084Z,25.13
2018-12-19T00:28:57.072Z,24.13
2018-12-19T00:31:28.161Z,25.93
2018-12-19T00:33:59.142Z,25.17
2018-12-19T00:36:28.063Z,25.37
2018-12-19T00:38:58.022Z,24.70
2018-12-19T00:41:26.948Z,25.00
2018-12-19T00:43:58.412Z,25.43
2018-12-19T00:46:27.420Z,24.47
2018-12-19T00:48:56.375Z,24.67
2018-12-19T00:51:25.313Z,25.07
2018-12-19T00:53:53.848Z,24.80
2018-12-19T00:56:22.396Z,22.87
2018-12-19T00:58:51.397Z,24.17
2018-12-19T01:01:20.385Z,24.40
2018-12-19T01:03:49.364Z,23.57
2018-12-19T01:06:17.907Z,23.23
2018-12-19T01:08:46.778Z,23.80
2018-12-19T01:11:15.730Z,24.37
2018-12-19T01:13:44.710Z,23.77
2018-12-19T01:16:13.330Z,23.57
2018-12-19T01:18:41.988Z,22.23
2018-12-19T01:21:10.524Z,21.53
2018-12-19T01:23:39.468Z,22.57
2018-12-19T01:26:08.394Z,21.67
2018-12-19T01:28:37.461Z,21.40
2018-12-19T01:31:06.072Z,21.40
2018-12-19T01:33:35.037Z,21.00
2018-12-19T01:36:03.947Z,20.40
2018-12-19T01:38:32.912Z,20.27
2018-12-19T01:41:01.851Z,21.03
2018-12-19T01:43:30.817Z,20.60
2018-12-19T01:45:59.770Z,20.13
2018-12-19T01:48:28.740Z,20.40
2018-12-19T01:50:57.412Z,20.53
2018-12-19T01:53:25.926Z,20.02
2018-12-19T01:55:54.911Z,19.07
2018-12-19T01:58:23.943Z,19.53
2018-12-19T02:00:52.831Z,20.02
2018-12-19T02:03:21.407Z,18.63
2018-12-19T02:05:50.490Z,18.40
2018-12-19T02:08:19.448Z,18.67
2018-12-19T02:10:48.397Z,19.55
2018-12-19T02:13:16.908Z,19.00
2018-12-19T02:15:45.497Z,17.37
2018-12-19T02:18:14.386Z,17.90
2018-12-19T02:20:43.293Z,17.73
2018-12-19T02:23:12.209Z,18.00
2018-12-19T02:25:40.717Z,18.07
2018-12-19T02:28:09.268Z,17.60
2018-12-19T02:30:38.235Z,17.03
2018-12-19T02:33:07.176Z,17.67
2018-12-19T02:35:36.114Z,16.83
2018-12-19T02:38:04.747Z,17.03
2018-12-19T02:40:33.765Z,17.83
2018-12-19T02:43:02.757Z,17.60
2018-12-19T02:45:31.939Z,17.20
2018-12-19T02:48:00.453Z,16.80
2018-12-19T02:50:29.457Z,17.43
2018-12-19T02:52:58.351Z,17.93
2018-12-19T02:55:27.306Z,16.77
2018-12-19T02:57:56.284Z,16.03
2018-12-19T03:00:24.833Z,16.13
2018-12-19T03:02:53.702Z,16.30
2018-12-19T03:05:22.682Z,16.20
2018-12-19T03:07:51.594Z,16.10
2018-12-19T03:10:20.506Z,16.33
2018-12-19T03:12:49.430Z,17.00
2018-12-19T03:15:18.440Z,16.93
2018-12-19T03:17:47.348Z,16.57
2018-12-19T03:20:16.322Z,16.03
2018-12-19T03:22:45.269Z,15.60
2018-12-19T03:25:14.203Z,16.10
2018-12-19T03:27:43.253Z,16.83
2018-12-19T03:30:12.185Z,16.60
2018-12-19T03:32:41.124Z,16.97
2018-12-19T03:35:10.034Z,17.53
2018-12-19T03:37:39.061Z,17.57
2018-12-19T03:40:07.692Z,19.10
2018-12-19T03:42:36.661Z,20.87
2018-12-19T03:45:06.310Z,20.60
2018-12-19T03:47:35.286Z,20.77
2018-12-19T03:50:04.692Z,19.30
2018-12-19T03:52:33.283Z,18.67
2018-12-19T03:55:02.215Z,18.03
2018-12-19T03:57:31.593Z,16.90
2018-12-19T04:00:00.625Z,15.97
2018-12-19T04:02:29.549Z,16.97
2018-12-19T04:04:58.147Z,20.43
2018-12-19T04:07:27.174Z,21.50
2018-12-19T04:09:57.976Z,20.10
2018-12-19T04:12:27.128Z,17.80
2018-12-19T04:14:56.065Z,16.60
2018-12-19T04:17:24.980Z,16.00
2018-12-19T04:19:53.559Z,15.53
2018-12-19T04:22:24.584Z,15.90
2018-12-19T04:24:53.124Z,15.30
2018-12-19T04:27:22.112Z,15.50
2018-12-19T04:29:51.420Z,16.33
2018-12-19T04:32:20.059Z,16.13
2018-12-19T04:34:48.623Z,16.37
2018-12-19T04:37:18.383Z,16.87
2018-12-19T04:39:47.419Z,15.67
2018-12-19T04:42:16.011Z,14.87
2018-12-19T04:44:44.555Z,14.83
2018-12-19T04:47:13.521Z,14.70
2018-12-19T04:49:42.049Z,15.60
2018-12-19T04:52:11.012Z,14.97
2018-12-19T04:54:41.326Z,15.15
2018-12-19T04:57:09.959Z,14.43
2018-12-19T04:59:38.947Z,14.13
2018-12-19T05:02:07.508Z,14.40
2018-12-19T05:04:36.445Z,13.90
2018-12-19T05:07:05.365Z,13.90
2018-12-19T05:09:34.331Z,13.43
2018-12-19T05:12:03.249Z,14.40
2018-12-19T05:14:32.106Z,14.33
2018-12-19T05:17:01.030Z,14.20
2018-12-19T05:19:29.977Z,13.90
2018-12-19T05:21:58.995Z,14.20
2018-12-19T05:24:31.996Z,14.30
2018-12-19T05:27:01.024Z,13.87
2018-12-19T05:29:29.599Z,14.67
2018-12-19T05:31:58.462Z,14.63
2018-12-19T05:34:27.439Z,14.70
2018-12-19T05:36:56.446Z,14.57
2018-12-19T05:39:24.985Z,14.67
2018-12-19T05:41:53.536Z,14.10
2018-12-19T05:44:22.201Z,14.67
2018-12-19T05:46:51.117Z,14.10
2018-12-19T05:49:20.035Z,14.70
2018-12-19T05:51:49.038Z,15.13
2018-12-19T05:54:17.601Z,14.60
2018-12-19T05:56:46.466Z,14.83
2018-12-19T05:59:15.382Z,14.30
2018-12-19T06:01:44.284Z,15.67
2018-12-19T06:04:14.960Z,16.07
2018-12-19T06:06:43.873Z,15.60
2018-12-19T06:09:12.812Z,17.13
2018-12-19T06:11:41.716Z,16.00
2018-12-19T06:14:11.419Z,20.50
2018-12-19T06:16:40.018Z,20.87
2018-12-19T06:19:08.565Z,18.70
2018-12-19T06:21:37.460Z,18.20
2018-12-19T06:24:06.363Z,17.07
2018-12-19T06:26:35.299Z,17.90
2018-12-19T06:29:03.908Z,18.43
2018-12-19T06:31:32.520Z,16.83
2018-12-19T06:34:01.468Z,16.70
2018-12-19T06:36:30.070Z,20.43
2018-12-19T06:38:59.239Z,22.67
2018-12-19T06:41:27.932Z,28.17
2018-12-19T06:43:56.513Z,24.40
2018-12-19T06:46:25.405Z,23.03
2018-12-19T06:48:54.373Z,24.83
2018-12-19T06:51:23.246Z,26.17
2018-12-19T06:53:52.161Z,24.43
2018-12-19T06:56:22.841Z,27.13
2018-12-19T06:58:51.398Z,26.57
2018-12-19T07:01:20.374Z,25.47
2018-12-19T07:03:48.999Z,24.13
2018-12-19T07:06:17.969Z,20.70
2018-12-19T07:08:46.999Z,20.62
2018-12-19T07:11:15.973Z,18.47
2018-12-19T07:13:44.952Z,21.10
2018-12-19T07:16:13.495Z,22.53
2018-12-19T07:18:42.179Z,20.63
2018-12-19T07:21:10.713Z,21.23
2018-12-19T07:23:40.228Z,21.60
2018-12-19T07:26:09.156Z,21.57
2018-12-19T07:28:38.133Z,23.93
2018-12-19T07:31:06.746Z,23.23
2018-12-19T07:33:35.595Z,23.50
2018-12-19T07:36:04.572Z,23.03
2018-12-19T07:38:33.173Z,24.70
2018-12-19T07:41:02.122Z,24.13
2018-12-19T07:43:30.701Z,25.33
2018-12-19T07:45:59.723Z,23.63
2018-12-19T07:48:29.951Z,20.97
2018-12-19T07:50:58.506Z,22.90
2018-12-19T07:53:27.410Z,24.67
2018-12-19T07:55:56.806Z,26.07
2018-12-19T07:58:25.346Z,25.23
2018-12-19T08:00:53.907Z,23.67
2018-12-19T08:03:22.862Z,22.30
2018-12-19T08:05:52.764Z,21.23
2018-12-19T08:08:21.838Z,24.93
2018-12-19T08:10:52.286Z,27.80
2018-12-19T08:13:20.958Z,23.60
2018-12-19T08:15:49.980Z,22.57
2018-12-19T08:18:18.920Z,25.13
2018-12-19T08:20:47.483Z,25.27
2018-12-19T08:23:16.423Z,23.03
2018-12-19T08:25:45.310Z,21.47
2018-12-19T08:28:13.844Z,21.80
2018-12-19T08:30:42.781Z,19.27
2018-12-19T08:33:11.741Z,21.07
2018-12-19T08:35:40.337Z,22.60
2018-12-19T08:38:09.277Z,20.47
2018-12-19T08:40:38.201Z,18.03
2018-12-19T08:43:07.203Z,19.40
2018-12-19T08:45:36.691Z,17.57
2018-12-19T08:48:05.343Z,20.13
2018-12-19T08:50:34.363Z,21.60
2018-12-19T08:53:03.244Z,20.93
2018-12-19T08:55:33.308Z,20.13
2018-12-19T08:58:02.267Z,19.37
2018-12-19T09:00:30.824Z,18.67
2018-12-19T09:02:59.772Z,17.90
2018-12-19T09:05:28.722Z,18.30
2018-12-19T09:07:57.715Z,17.00
2018-12-19T09:10:26.685Z,18.17
2018-12-19T09:12:55.611Z,18.83
2018-12-19T09:15:29.952Z,17.42
2018-12-19T09:17:58.818Z,18.50
2018-12-19T09:20:27.834Z,17.27
2018-12-19T09:22:56.850Z,17.10
2018-12-19T09:25:25.447Z,18.70
2018-12-19T09:27:54.446Z,17.83
2018-12-19T09:30:23.399Z,18.40
2018-12-19T09:32:52.721Z,18.30
2018-12-19T09:35:21.862Z,18.83
2018-12-19T09:37:50.836Z,20.43
2018-12-19T09:40:20.403Z,20.62
2018-12-19T09:42:49.366Z,20.00
2018-12-19T09:45:18.330Z,18.63
2018-12-19T09:47:46.966Z,18.97
2018-12-19T09:50:15.897Z,20.77
2018-12-19T09:52:44.829Z,19.53
2018-12-19T09:55:13.829Z,17.97
2018-12-19T09:57:43.064Z,17.40
2018-12-19T10:00:17.221Z,16.60
2018-12-19T10:02:45.809Z,17.27
2018-12-19T10:05:14.781Z,15.57
2018-12-19T10:07:43.767Z,15.30
2018-12-19T10:10:12.675Z,15.50
2018-12-19T10:12:41.600Z,13.70
2018-12-19T10:15:10.510Z,13.70
2018-12-19T10:17:40.986Z,12.67
2018-12-19T10:20:10.333Z,13.57
2018-12-19T10:22:39.251Z,12.37
2018-12-19T10:25:15.334Z,11.30
2018-12-19T10:27:44.355Z,15.37
2018-12-19T10:30:14.286Z,15.87
2018-12-19T10:32:43.307Z,7.70
2018-12-19T10:35:11.865Z,8.43
2018-12-19T10:37:41.490Z,9.27
2018-12-19T10:40:10.699Z,9.17
2018-12-19T10:42:39.553Z,8.43
2018-12-19T10:45:10.204Z,6.17
2018-12-19T10:47:39.195Z,5.47
2018-12-19T10:50:10.057Z,6.90
2018-12-19T10:52:39.009Z,7.03
2018-12-19T10:55:08.411Z,6.13
2018-12-19T10:57:37.674Z,7.13
2018-12-19T11:00:17.597Z,7.23
2018-12-19T11:02:46.617Z,7.23
2018-12-19T11:05:15.147Z,7.83
2018-12-19T11:07:43.672Z,8.83
2018-12-19T11:10:12.218Z,20.80
2018-12-19T11:12:40.755Z,21.93
2018-12-19T11:15:10.872Z,24.30
2018-12-19T11:17:39.438Z,23.67
2018-12-19T11:20:08.979Z,24.80
2018-12-19T11:22:37.944Z,26.23
2018-12-19T11:25:07.148Z,28.73
2018-12-19T11:27:35.686Z,29.40
2018-12-19T11:30:05.947Z,30.73
2018-12-19T11:32:34.650Z,31.00
2018-12-19T11:35:03.872Z,30.53
2018-12-19T11:37:32.824Z,29.90
2018-12-19T11:40:01.822Z,29.30
2018-12-19T11:42:30.421Z,30.43
2018-12-19T11:44:58.957Z,30.90
2018-12-19T11:47:27.880Z,29.00
2018-12-19T11:49:56.844Z,30.13
2018-12-19T11:52:25.779Z,29.30
2018-12-19T11:54:54.301Z,27.47
2018-12-19T11:57:23.375Z,25.13
2018-12-19T11:59:55.142Z,26.57
2018-12-19T12:02:24.170Z,27.13
2018-12-19T12:04:52.796Z,22.70
2018-12-19T12:07:23.595Z,21.63
2018-12-19T12:09:52.554Z,20.53
2018-12-19T12:12:21.225Z,18.83
2018-12-19T12:14:50.246Z,16.37
2018-12-19T12:17:18.790Z,16.27
2018-12-19T12:19:50.698Z,15.80
2018-12-19T12:22:19.596Z,16.43
2018-12-19T12:24:48.508Z,16.83
2018-12-19T12:27:18.588Z,17.93
2018-12-19T12:29:47.953Z,17.47
2018-12-19T12:32:34.101Z,16.67
2018-12-19T12:35:05.191Z,17.20
2018-12-19T12:37:34.561Z,16.53
2018-12-19T12:40:03.256Z,15.53
2018-12-19T12:42:32.195Z,16.43
2018-12-19T12:45:01.306Z,16.70
2018-12-19T12:47:30.217Z,15.43
2018-12-19T12:49:59.208Z,15.40
2018-12-19T12:52:29.032Z,16.33
2018-12-19T12:54:57.930Z,18.17
2018-12-19T12:57:26.821Z,16.93
2018-12-19T12:59:55.840Z,16.70
2018-12-19T13:02:24.434Z,17.00
2018-12-19T13:04:53.358Z,17.97
2018-12-19T13:07:21.998Z,20.63
2018-12-19T13:09:50.907Z,24.07
2018-12-19T13:12:19.523Z,25.43
2018-12-19T13:14:48.331Z,24.17
2018-12-19T13:17:17.252Z,15.47
2018-12-19T13:19:46.179Z,16.73
2018-12-19T13:22:15.106Z,16.37
2018-12-19T13:24:44.063Z,16.00
2018-12-19T13:27:13.013Z,15.60
2018-12-19T13:29:41.943Z,15.23
2018-12-19T13:32:10.714Z,14.60
2018-12-19T13:34:39.650Z,13.63
2018-12-19T13:37:08.229Z,14.30
2018-12-19T13:39:37.263Z,15.10
2018-12-19T13:42:06.293Z,14.73
2018-12-19T13:44:35.065Z,14.60
2018-12-19T13:47:03.710Z,16.70
2018-12-19T13:49:32.258Z,16.10
2018-12-19T13:52:01.301Z,16.87
2018-12-19T13:54:30.286Z,17.10
2018-12-19T13:56:59.148Z,15.87
2018-12-19T13:59:27.730Z,16.80
2018-12-19T14:01:56.645Z,16.43
2018-12-19T14:04:25.877Z,17.60
2018-12-19T14:06:54.927Z,18.23
2018-12-19T14:09:23.950Z,21.47
2018-12-19T14:11:52.938Z,21.63
2018-12-19T14:14:21.929Z,20.47
2018-12-19T14:16:50.500Z,22.13
2018-12-19T14:19:19.504Z,21.60
2018-12-19T14:21:48.454Z,22.00
2018-12-19T14:24:17.329Z,22.17
2018-12-19T14:26:46.255Z,23.23
2018-12-19T14:29:14.846Z,22.57
2018-12-19T14:31:43.794Z,23.97
2018-12-19T14:34:12.681Z,25.30
2018-12-19T14:36:41.619Z,24.67
2018-12-19T14:39:10.189Z,26.30
2018-12-19T14:41:38.792Z,26.97
2018-12-19T14:44:07.858Z,25.90
2018-12-19T14:46:36.820Z,24.80
2018-12-19T14:49:05.699Z,25.30
2018-12-19T14:51:34.353Z,25.30
2018-12-19T14:54:03.297Z,25.43
2018-12-19T14:56:32.214Z,24.75
2018-12-19T14:59:01.207Z,24.20
2018-12-19T15:01:29.760Z,23.10
2018-12-19T15:03:58.303Z,23.50
2018-12-19T15:06:27.270Z,27.60
2018-12-19T15:08:56.220Z,26.57
2018-12-19T15:11:27.317Z,29.47
2018-12-19T15:13:55.864Z,33.13
2018-12-19T15:16:24.986Z,31.37
2018-12-19T15:18:53.998Z,31.47
2018-12-19T15:21:22.565Z,30.00
2018-12-19T15:23:51.455Z,30.65
2018-12-19T15:26:19.996Z,27.10
2018-12-19T15:28:48.904Z,26.87
2018-12-19T15:31:17.470Z,26.10
2018-12-19T15:33:46.405Z,27.47
2018-12-19T15:36:15.770Z,27.20
2018-12-19T15:38:44.730Z,25.77
2018-12-19T15:41:13.326Z,26.43
2018-12-19T15:43:41.909Z,26.87
2018-12-19T15:46:10.798Z,26.37
2018-12-19T15:48:39.831Z,26.77
2018-12-19T15:51:08.766Z,26.57
2018-12-19T15:53:37.318Z,28.37
2018-12-19T15:56:05.899Z,28.60
2018-12-19T15:58:34.842Z,27.50
2018-12-19T16:01:05.017Z,26.20
2018-12-19T16:03:34.697Z,26.07
2018-12-19T16:06:03.638Z,26.47
2018-12-19T16:08:32.564Z,24.37
2018-12-19T16:11:01.120Z,25.13
2018-12-19T16:13:30.097Z,24.10
2018-12-19T16:15:59.266Z,22.93
2018-12-19T16:18:28.205Z,22.90
2018-12-19T16:20:56.836Z,23.37
2018-12-19T16:23:25.745Z,40.23
2018-12-19T16:25:54.707Z,70.33
2018-12-19T16:28:23.753Z,55.83
2018-12-19T16:30:52.736Z,68.43
2018-12-19T16:33:21.864Z,61.00
2018-12-19T16:35:50.760Z,74.30
2018-12-19T16:38:19.725Z,66.93
2018-12-19T16:40:48.330Z,56.83
2018-12-19T16:43:17.302Z,45.13
2018-12-19T16:45:46.165Z,54.30
2018-12-19T16:48:15.033Z,53.87
2018-12-19T16:50:43.658Z,50.00
2018-12-19T16:53:12.854Z,42.20
2018-12-19T16:55:41.888Z,39.85
2018-12-19T16:58:10.482Z,43.00
2018-12-19T17:00:39.001Z,41.40
2018-12-19T17:03:07.603Z,38.90
2018-12-19T17:05:36.187Z,35.40
2018-12-19T17:08:04.804Z,32.70
2018-12-19T17:10:33.763Z,35.13
2018-12-19T17:13:02.675Z,35.20
2018-12-19T17:15:35.215Z,38.93
2018-12-19T17:18:04.293Z,41.77
2018-12-19T17:20:33.394Z,54.00
2018-12-19T17:23:02.125Z,52.15
2018-12-19T17:25:32.171Z,48.13
2018-12-19T17:28:01.184Z,51.63
2018-12-19T17:30:29.764Z,50.20
2018-12-19T17:32:58.774Z,49.97
2018-12-19T17:35:27.675Z,46.93
2018-12-19T17:37:56.286Z,45.57
2018-12-19T17:40:26.284Z,46.97
2018-12-19T17:42:59.362Z,45.57
2018-12-19T17:45:25.904Z,46.30
2018-12-19T17:47:54.821Z,47.70
2018-12-19T17:50:23.721Z,47.60
2018-12-19T17:52:52.653Z,42.90
2018-12-19T17:55:21.192Z,55.23
2018-12-19T17:57:49.808Z,54.10
2018-12-19T18:00:19.027Z,42.40
2018-12-19T18:02:47.613Z,41.83
2018-12-19T18:05:16.262Z,42.80
2018-12-19T18:07:48.915Z,46.00
2018-12-19T18:10:19.269Z,43.83
2018-12-19T18:12:48.206Z,43.10
2018-12-19T18:15:17.180Z,44.10
2018-12-19T18:17:46.036Z,44.07
2018-12-19T18:20:14.675Z,44.03
2018-12-19T18:22:43.599Z,44.55
2018-12-19T18:25:12.490Z,42.27
2018-12-19T18:27:41.015Z,42.13
2018-12-19T18:30:15.927Z,43.70
2018-12-19T18:32:44.446Z,40.47
2018-12-19T18:35:13.348Z,53.50
2018-12-19T18:37:42.265Z,51.07
2018-12-19T18:40:11.229Z,50.40
2018-12-19T18:42:39.984Z,53.03
2018-12-19T18:45:11.828Z,53.10
2018-12-19T18:47:41.058Z,62.00
2018-12-19T18:50:09.620Z,54.93
2018-12-19T18:52:38.560Z,52.67
2018-12-19T18:55:07.453Z,52.47
2018-12-19T18:57:36.492Z,51.97
2018-12-19T19:00:06.320Z,51.23
2018-12-19T19:02:34.933Z,53.63
2018-12-19T19:05:03.923Z,45.30
2018-12-19T19:07:32.841Z,41.73
2018-12-19T19:10:01.704Z,45.97
2018-12-19T19:12:30.315Z,46.60
2018-12-19T19:14:58.930Z,48.73
2018-12-19T19:17:27.437Z,52.07
2018-12-19T19:19:56.019Z,37.63
2018-12-19T19:22:24.882Z,40.53
2018-12-19T19:24:53.709Z,45.03
2018-12-19T19:27:23.817Z,39.50
2018-12-19T19:29:52.785Z,38.80
2018-12-19T19:32:21.739Z,39.20
2018-12-19T19:34:50.392Z,36.40
2018-12-19T19:37:19.351Z,38.37
2018-12-19T19:39:48.254Z,36.80
2018-12-19T19:42:16.796Z,35.00
2018-12-19T19:44:45.753Z,36.63
2018-12-19T19:47:14.239Z,35.13
2018-12-19T19:49:43.121Z,33.23
2018-12-19T19:52:12.054Z,19.97
2018-12-19T19:54:40.978Z,20.67
2018-12-19T19:57:09.601Z,18.97
2018-12-19T19:59:38.105Z,23.73
2018-12-19T20:02:07.074Z,17.60
2018-12-19T20:04:35.948Z,17.03
2018-12-19T20:07:05.009Z,16.60
2018-12-19T20:09:33.619Z,16.60
2018-12-19T20:12:02.184Z,18.97
2018-12-19T20:14:37.659Z,19.63
2018-12-19T20:17:06.616Z,25.70
2018-12-19T20:19:35.128Z,24.33
2018-12-19T20:22:03.597Z,19.60
2018-12-19T20:24:32.175Z,19.13
2018-12-19T20:27:01.036Z,18.70
2018-12-19T20:29:30.937Z,22.67
2018-12-19T20:31:59.456Z,24.80
2018-12-19T20:34:28.317Z,25.27
2018-12-19T20:36:57.169Z,25.90
2018-12-19T20:39:26.216Z,25.67
2018-12-19T20:41:54.780Z,28.37
2018-12-19T20:44:24.226Z,27.50
2018-12-19T20:46:54.545Z,26.57
2018-12-19T20:49:24.119Z,27.70
2018-12-19T20:51:53.153Z,26.67
2018-12-19T20:54:23.010Z,27.30
2018-12-19T20:56:51.892Z,26.63
2018-12-19T20:59:20.963Z,27.77
2018-12-19T21:01:49.681Z,25.07
2018-12-19T21:04:18.615Z,25.10
2018-12-19T21:06:47.672Z,23.23
2018-12-19T21:09:16.312Z,24.10
2018-12-19T21:11:44.933Z,23.03
2018-12-19T21:14:13.848Z,30.00
2018-12-19T21:16:48.063Z,27.47
2018-12-19T21:19:16.583Z,26.03
2018-12-19T21:21:45.212Z,22.50
2018-12-19T21:24:14.159Z,21.20
2018-12-19T21:26:43.112Z,21.63
2018-12-19T21:29:15.043Z,21.00
2018-12-19T21:31:43.595Z,21.00
2018-12-19T21:34:12.437Z,20.57
2018-12-19T21:36:41.365Z,21.07
2018-12-19T21:39:10.572Z,19.57
2018-12-19T21:41:39.486Z,20.23
2018-12-19T21:44:08.432Z,18.50
2018-12-19T21:46:37.329Z,18.37
2018-12-19T21:49:05.921Z,21.60
2018-12-19T21:51:34.524Z,22.17
2018-12-19T21:54:03.221Z,19.87
2018-12-19T21:56:31.803Z,20.63
2018-12-19T21:59:00.860Z,17.63
2018-12-19T22:01:29.920Z,21.37
2018-12-19T22:03:58.531Z,19.30
2018-12-19T22:06:27.425Z,26.83
2018-12-19T22:08:56.388Z,23.70
2018-12-19T22:11:25.486Z,18.60
2018-12-19T22:14:00.424Z,19.00
2018-12-19T22:16:30.397Z,18.33
2018-12-19T22:19:00.166Z,16.40
2018-12-19T22:21:28.786Z,15.77
2018-12-19T22:23:57.668Z,15.60
2018-12-19T22:26:26.734Z,14.93
2018-12-19T22:28:55.395Z,14.73
2018-12-19T22:31:24.393Z,13.80
2018-12-19T22:33:52.959Z,15.73
2018-12-19T22:36:22.048Z,14.77
2018-12-19T22:38:50.684Z,15.47
2018-12-19T22:41:19.329Z,16.77
2018-12-19T22:43:48.262Z,14.90
2018-12-19T22:46:17.303Z,17.07
2018-12-19T22:48:46.414Z,15.93
2018-12-19T22:51:15.207Z,17.67
2018-12-19T22:53:44.300Z,14.47
2018-12-19T22:56:13.281Z,16.73
2018-12-19T22:58:42.193Z,15.23
2018-12-19T23:01:16.762Z,13.40
2018-12-19T23:03:51.175Z,15.27
2018-12-19T23:06:20.196Z,14.37
2018-12-19T23:08:49.195Z,15.40
2018-12-19T23:11:18.169Z,12.60
2018-12-19T23:13:46.814Z,14.33
2018-12-19T23:16:15.275Z,14.20
2018-12-19T23:18:50.362Z,15.27
2018-12-19T23:21:25.512Z,15.23
2018-12-19T23:24:00.203Z,12.90
2018-12-19T23:26:31.194Z,14.70
2018-12-19T23:29:03.079Z,13.87
2018-12-19T23:31:33.422Z,14.60
2018-12-19T23:34:02.233Z,14.73
2018-12-19T23:36:31.423Z,14.87
2018-12-19T23:39:00.574Z,14.57
2018-12-19T23:41:30.907Z,13.93
2018-12-19T23:44:00.166Z,12.73
2018-12-19T23:46:28.881Z,13.80
2018-12-19T23:48:57.881Z,13.53
2018-12-19T23:51:26.844Z,13.80
2018-12-19T23:53:55.962Z,13.57
2018-12-19T23:56:24.610Z,15.20
2018-12-19T23:58:53.195Z,15.50
